Time;durP1;ratioP1;P1;durP2;ratioP2;P2;SDS_P1;SDS_P2;PMS_P1;PMS_P2;Temp;Humidity;BMP_temperature;BMP_pressure;BME280_temperature;BME280_humidity;BME280_pressure;Samples;Min_cycle;Max_cycle;Signal;HPM_P1;HPM_P2
2022/11/17 00:01:54;;;;;;;0.47;0.40;;;8.00;99.90;;;;;;5116895;28;20456;-79
2022/11/17 00:04:21;;;;;;;0.40;0.30;;;8.00;99.90;;;;;;5115941;28;20486;-79
2022/11/17 00:06:48;;;;;;;0.50;0.50;;;7.90;99.90;;;;;;5115745;28;20447;-79
2022/11/17 00:09:16;;;;;;;0.40;0.30;;;7.90;99.90;;;;;;5115997;28;20479;-79
2022/11/17 00:14:33;;;;;;;0.30;0.30;;;8.00;99.90;;;;;;5115686;28;20443;-79
2022/11/17 00:17:02;;;;;;;0.30;0.30;;;8.10;99.90;;;;;;5115693;28;20432;-79
2022/11/17 00:22:13;;;;;;;0.60;0.50;;;8.30;99.90;;;;;;5115610;28;20780;-79
2022/11/17 00:24:40;;;;;;;0.33;0.30;;;8.40;99.90;;;;;;5115644;28;20551;-79
2022/11/17 00:27:07;;;;;;;0.50;0.40;;;8.50;99.90;;;;;;5116115;28;20455;-80
2022/11/17 00:29:34;;;;;;;0.60;0.40;;;8.50;99.90;;;;;;5115588;27;20505;-79
2022/11/17 00:34:47;;;;;;;0.93;0.50;;;8.50;99.90;;;;;;5115332;28;20996;-80
2022/11/17 00:37:15;;;;;;;0.50;0.50;;;8.50;99.90;;;;;;5115457;28;20501;-81
2022/11/17 00:39:42;;;;;;;0.30;0.30;;;8.50;99.90;;;;;;5115075;28;20482;-81
2022/11/17 00:42:09;;;;;;;0.87;0.50;;;8.50;99.90;;;;;;5115794;28;20452;-80
2022/11/17 00:44:36;;;;;;;2.30;0.50;;;8.60;99.90;;;;;;5115291;27;20474;-81
2022/11/17 00:47:04;;;;;;;2.30;0.80;;;8.60;99.90;;;;;;5115196;28;20452;-80
2022/11/17 00:49:31;;;;;;;0.57;0.30;;;8.60;99.90;;;;;;5115063;28;20942;-81
2022/11/17 00:51:58;;;;;;;1.00;0.90;;;8.60;99.90;;;;;;5115932;28;20444;-80
2022/11/17 00:54:26;;;;;;;1.93;1.00;;;8.60;99.90;;;;;;5114687;28;20464;-80
2022/11/17 00:56:52;;;;;;;0.40;0.40;;;8.60;99.90;;;;;;5115076;28;20538;-81
2022/11/17 00:59:19;;;;;;;0.40;0.40;;;8.60;99.90;;;;;;5114934;28;20567;-81
2022/11/17 01:01:47;;;;;;;0.93;0.50;;;8.60;99.90;;;;;;5113851;28;21051;-77
2022/11/17 01:04:15;;;;;;;0.40;0.40;;;8.70;99.90;;;;;;5114804;28;20490;-78
2022/11/17 01:06:44;;;;;;;0.30;0.30;;;8.60;99.90;;;;;;5114913;28;20799;-78
2022/11/17 01:09:13;;;;;;;0.40;0.37;;;8.60;99.90;;;;;;5114493;28;20939;-81
2022/11/17 01:11:40;;;;;;;0.50;0.50;;;8.60;99.90;;;;;;5114766;28;20475;-80
2022/11/17 01:14:09;;;;;;;0.67;0.57;;;8.50;99.90;;;;;;5114669;28;20464;-80
2022/11/17 01:16:36;;;;;;;1.23;0.50;;;8.50;99.90;;;;;;5114924;28;20444;-80
2022/11/17 01:19:03;;;;;;;0.50;0.50;;;8.50;99.90;;;;;;5114153;28;20487;-80
2022/11/17 01:21:32;;;;;;;2.93;0.50;;;8.60;99.90;;;;;;5114835;28;20470;-80
2022/11/17 01:24:01;;;;;;;0.30;0.30;;;8.60;99.90;;;;;;5114490;28;20540;-80
2022/11/17 01:26:30;;;;;;;1.27;0.43;;;8.60;99.90;;;;;;5114168;28;20819;-80
2022/11/17 01:28:58;;;;;;;0.30;0.30;;;8.60;99.90;;;;;;5114457;28;20455;-80
2022/11/17 01:31:26;;;;;;;0.80;0.60;;;8.60;99.90;;;;;;5114407;28;20462;-79
2022/11/17 01:33:53;;;;;;;0.70;0.70;;;8.60;99.90;;;;;;5114010;28;20467;-80
2022/11/17 01:36:21;;;;;;;0.50;0.40;;;8.60;99.90;;;;;;5114290;28;20440;-80
2022/11/17 01:38:50;;;;;;;0.93;0.53;;;8.60;99.90;;;;;;5113979;28;20930;-80
2022/11/17 01:41:19;;;;;;;1.30;0.53;;;8.60;99.90;;;;;;5114188;28;20475;-79
2022/11/17 01:43:47;;;;;;;1.40;0.40;;;8.70;99.90;;;;;;5114074;28;21005;-79
2022/11/17 01:46:26;;;;;;;0.50;0.50;;;8.70;99.90;;;;;;5114215;28;20440;-79
2022/11/17 01:48:57;;;;;;;0.30;0.30;;;8.70;99.90;;;;;;5114337;28;20427;-79
2022/11/17 01:51:24;;;;;;;0.40;0.30;;;8.70;99.90;;;;;;5114201;28;20431;-80
2022/11/17 01:53:52;;;;;;;0.37;0.37;;;8.70;99.90;;;;;;5114279;28;20467;-80
2022/11/17 01:56:26;;;;;;;0.60;0.50;;;8.70;99.90;;;;;;5114029;28;20522;-80
2022/11/17 01:59:06;;;;;;;2.30;0.40;;;8.80;99.90;;;;;;5114028;28;20922;-80
2022/11/17 02:01:33;;;;;;;0.70;0.33;;;8.80;99.90;;;;;;5114029;28;20431;-80
2022/11/17 02:04:01;;;;;;;0.43;0.43;;;8.80;99.90;;;;;;5113854;28;20471;-79
2022/11/17 02:06:32;;;;;;;0.40;0.40;;;8.70;99.90;;;;;;5113890;28;20444;-80
2022/11/17 02:09:02;;;;;;;0.60;0.33;;;8.70;99.90;;;;;;5114095;28;20969;-80
2022/11/17 02:11:34;;;;;;;0.73;0.40;;;8.70;99.90;;;;;;5113595;28;20451;-79
2022/11/17 02:14:03;;;;;;;0.70;0.40;;;8.70;99.90;;;;;;5113409;28;20472;-80
2022/11/17 02:16:30;;;;;;;1.50;0.43;;;8.60;99.90;;;;;;5113770;28;20807;-79
2022/11/17 02:18:57;;;;;;;0.70;0.63;;;8.50;99.90;;;;;;5113280;28;20467;-80
2022/11/17 02:21:51;;;;;;;0.90;0.70;;;8.40;99.90;;;;;;5113846;28;20487;-80
2022/11/17 02:24:51;;;;;;;0.40;0.37;;;8.40;99.90;;;;;;5100264;28;20479;-80
2022/11/17 02:27:43;;;;;;;0.40;0.40;;;8.30;99.90;;;;;;5113708;28;20444;-80
2022/11/17 02:30:13;;;;;;;0.40;0.37;;;8.30;99.90;;;;;;5113718;28;20436;-79
2022/11/17 02:32:48;;;;;;;0.40;0.33;;;8.30;99.90;;;;;;5113254;28;20452;-80
2022/11/17 02:35:24;;;;;;;0.40;0.40;;;8.20;99.90;;;;;;5113690;28;20427;-80
2022/11/17 02:37:57;;;;;;;0.60;0.40;;;8.30;99.90;;;;;;5113683;28;20791;-80
2022/11/17 02:40:32;;;;;;;0.60;0.60;;;8.30;99.90;;;;;;5113818;28;20472;-79
2022/11/17 02:45:51;;;;;;;0.40;0.37;;;8.30;99.90;;;;;;5113938;28;20494;-80
2022/11/17 02:48:23;;;;;;;0.40;0.40;;;8.40;99.90;;;;;;5113245;28;20773;-80
2022/11/17 02:50:51;;;;;;;0.30;0.30;;;8.40;99.90;;;;;;5113541;28;20432;-80
2022/11/17 02:53:19;;;;;;;0.30;0.30;;;8.40;99.90;;;;;;5113405;28;20464;-80
2022/11/17 02:55:50;;;;;;;0.40;0.40;;;8.40;99.90;;;;;;5113433;28;20835;-80
2022/11/17 02:58:18;;;;;;;0.40;0.40;;;8.40;99.90;;;;;;5113612;28;20428;-80
2022/11/17 03:00:54;;;;;;;0.83;0.50;;;8.50;99.90;;;;;;5113338;28;20490;-80
2022/11/17 03:03:34;;;;;;;0.50;0.50;;;8.50;99.90;;;;;;5113361;28;20470;-80
2022/11/17 03:06:09;;;;;;;1.17;0.50;;;8.60;99.90;;;;;;5113422;28;20424;-80
2022/11/17 03:08:47;;;;;;;0.40;0.40;;;8.50;99.90;;;;;;5113416;28;20433;-79
2022/11/17 03:11:14;;;;;;;0.50;0.40;;;8.60;99.90;;;;;;5113361;28;20432;-79
2022/11/17 03:13:46;;;;;;;0.30;0.30;;;8.50;99.90;;;;;;5113457;28;20481;-79
2022/11/17 03:16:22;;;;;;;1.50;0.43;;;8.50;99.90;;;;;;5113009;28;21008;-79
2022/11/17 03:19:00;;;;;;;0.77;0.47;;;8.50;99.90;;;;;;5112881;28;20483;-79
2022/11/17 03:21:31;;;;;;;1.23;0.30;;;8.40;99.90;;;;;;5113173;28;20467;-79
2022/11/17 03:24:03;;;;;;;0.50;0.30;;;8.40;99.90;;;;;;5113183;28;20470;-79
2022/11/17 03:26:33;;;;;;;0.57;0.30;;;8.40;99.90;;;;;;5116328;28;20907;-79
2022/11/17 03:29:05;;;;;;;0.50;0.33;;;8.40;99.90;;;;;;5116859;28;20445;-78
2022/11/17 03:31:33;;;;;;;0.30;0.30;;;8.40;99.90;;;;;;5116787;28;20432;-79
2022/11/17 03:34:04;;;;;;;0.60;0.60;;;8.30;99.90;;;;;;5116636;28;20467;-79
2022/11/17 03:36:35;;;;;;;0.90;0.50;;;8.40;99.90;;;;;;5116624;28;20824;-78
2022/11/17 03:39:07;;;;;;;0.70;0.67;;;8.40;99.90;;;;;;5116698;28;20435;-78
2022/11/17 03:41:39;;;;;;;0.90;0.90;;;8.40;99.90;;;;;;5116528;28;20478;-77
2022/11/17 03:44:07;;;;;;;1.87;0.80;;;8.40;99.90;;;;;;5116185;28;20476;-76
2022/11/17 03:46:37;;;;;;;0.30;0.30;;;8.40;99.90;;;;;;5116480;28;20452;-77
2022/11/17 03:49:11;;;;;;;0.40;0.30;;;8.40;99.90;;;;;;5116146;28;20903;-76
2022/11/17 03:51:38;;;;;;;0.60;0.60;;;8.30;99.90;;;;;;5116113;28;20431;-76
2022/11/17 03:54:05;;;;;;;0.90;0.60;;;8.30;99.90;;;;;;5116278;28;20464;-77
2022/11/17 03:56:38;;;;;;;0.40;0.40;;;8.20;99.90;;;;;;5116255;28;20439;-77
2022/11/17 03:59:13;;;;;;;0.30;0.30;;;8.20;99.90;;;;;;5116250;28;20436;-77
2022/11/17 04:01:40;;;;;;;0.60;0.40;;;8.20;99.90;;;;;;5116181;28;20468;-77
2022/11/17 04:04:07;;;;;;;0.70;0.30;;;8.20;99.90;;;;;;5116465;28;20491;-77
2022/11/17 04:06:34;;;;;;;18.83;1.03;;;8.20;99.90;;;;;;5116265;28;20455;-77
2022/11/17 04:09:00;;;;;;;0.40;0.30;;;8.10;99.90;;;;;;5116067;28;20446;-77
2022/11/17 04:16:57;;;;;;;0.37;0.30;;;8.10;99.90;;;;;;5115950;28;20934;-77
2022/11/17 04:19:23;;;;;;;1.33;0.50;;;8.20;99.90;;;;;;5115849;28;20813;-77
2022/11/17 04:21:50;;;;;;;0.50;0.50;;;8.10;99.90;;;;;;5115411;28;21016;-77
2022/11/17 04:24:17;;;;;;;0.77;0.77;;;8.20;99.90;;;;;;5115356;28;20468;-77
2022/11/17 04:29:29;;;;;;;0.53;0.40;;;8.20;99.90;;;;;;5115543;28;20894;-77
2022/11/17 04:31:56;;;;;;;4.77;0.50;;;8.20;99.90;;;;;;5115307;28;20930;-76
2022/11/17 04:34:22;;;;;;;0.40;0.30;;;8.20;99.90;;;;;;5115722;28;20464;-76
2022/11/17 04:36:49;;;;;;;0.80;0.40;;;8.20;99.90;;;;;;5114050;28;20934;-77
2022/11/17 04:39:16;;;;;;;0.30;0.30;;;8.20;99.90;;;;;;5115503;28;20452;-76
2022/11/17 04:41:56;;;;;;;0.40;0.40;;;8.20;99.90;;;;;;5115030;28;20475;-76
2022/11/17 04:44:25;;;;;;;0.40;0.40;;;8.20;99.90;;;;;;5115049;28;20470;-77
2022/11/17 04:46:54;;;;;;;1.70;0.50;;;8.30;99.90;;;;;;5115359;28;20789;-77
2022/11/17 04:49:23;;;;;;;0.40;0.33;;;8.30;99.90;;;;;;5114963;28;20509;-76
2022/11/17 04:51:50;;;;;;;0.50;0.40;;;8.30;99.90;;;;;;5115763;28;20922;-76
2022/11/17 04:54:19;;;;;;;0.60;0.60;;;8.40;99.90;;;;;;5115087;28;20474;-76
2022/11/17 04:56:47;;;;;;;1.80;0.50;;;8.40;99.90;;;;;;5115120;28;20443;-76
2022/11/17 04:59:14;;;;;;;0.40;0.40;;;8.30;99.90;;;;;;5114751;28;21062;-76
2022/11/17 05:01:41;;;;;;;1.67;0.30;;;8.40;99.90;;;;;;5114869;28;20479;-76
2022/11/17 05:04:10;;;;;;;0.40;0.40;;;8.40;99.90;;;;;;5114858;28;20522;-76
2022/11/17 05:06:39;;;;;;;0.40;0.40;;;8.40;99.90;;;;;;5114930;28;20436;-76
2022/11/17 05:09:07;;;;;;;1.63;0.53;;;8.40;99.90;;;;;;5114817;28;20447;-76
2022/11/17 05:14:20;;;;;;;0.40;0.40;;;8.40;99.90;;;;;;5114516;28;20458;-76
2022/11/17 05:17:05;;;;;;;0.60;0.50;;;8.40;99.90;;;;;;5114925;28;20444;-76
2022/11/17 05:19:34;;;;;;;0.70;0.37;;;8.40;99.90;;;;;;5114798;28;20452;-77
2022/11/17 05:22:02;;;;;;;0.40;0.30;;;8.40;99.90;;;;;;5114555;28;20476;-76
2022/11/17 05:24:27;;;;;;;0.30;0.20;;;8.30;99.90;;;;;;5114735;28;20466;-77
2022/11/17 05:26:55;;;;;;;0.50;0.50;;;8.30;99.90;;;;;;5114533;28;20439;-77
2022/11/17 05:29:22;;;;;;;0.40;0.40;;;8.30;99.90;;;;;;5114497;28;20225;-77
2022/11/17 05:31:49;;;;;;;0.40;0.40;;;8.30;99.90;;;;;;5114144;28;20958;-77
2022/11/17 05:34:17;;;;;;;0.60;0.40;;;8.40;99.90;;;;;;5114308;28;20474;-76
2022/11/17 05:36:45;;;;;;;0.30;0.30;;;8.40;99.90;;;;;;5114067;28;20444;-77
2022/11/17 05:39:12;;;;;;;0.30;0.30;;;8.40;99.90;;;;;;5114014;28;20938;-77
2022/11/17 05:41:39;;;;;;;1.23;0.40;;;8.40;99.90;;;;;;5114222;28;20475;-77
2022/11/17 05:44:06;;;;;;;0.30;0.30;;;8.30;99.90;;;;;;5114176;28;20463;-77
2022/11/17 05:46:33;;;;;;;0.80;0.60;;;8.30;99.90;;;;;;5114222;28;20439;-78
2022/11/17 05:48:59;;;;;;;0.50;0.43;;;8.30;99.90;;;;;;5113421;28;20450;-78
2022/11/17 05:51:26;;;;;;;0.40;0.30;;;8.30;99.90;;;;;;5113775;28;20440;-77
2022/11/17 05:53:55;;;;;;;0.70;0.30;;;8.30;99.90;;;;;;5114292;28;20828;-78
2022/11/17 05:56:31;;;;;;;0.40;0.30;;;8.20;99.90;;;;;;5113752;28;20451;-77
2022/11/17 05:59:07;;;;;;;0.87;0.30;;;8.20;99.90;;;;;;5114059;28;20522;-78
2022/11/17 06:01:36;;;;;;;1.20;0.30;;;8.10;99.90;;;;;;5113916;28;20474;-78
2022/11/17 06:04:05;;;;;;;0.30;0.20;;;8.10;99.90;;;;;;5113791;27;20974;-77
2022/11/17 06:06:34;;;;;;;0.40;0.30;;;8.10;99.90;;;;;;5113678;28;20443;-78
2022/11/17 06:09:02;;;;;;;0.40;0.30;;;8.20;99.90;;;;;;5113924;28;20448;-78
2022/11/17 06:11:29;;;;;;;0.40;0.30;;;8.20;99.90;;;;;;5113877;28;20446;-78
2022/11/17 06:13:56;;;;;;;0.30;0.30;;;8.30;99.90;;;;;;5113496;28;21001;-78
2022/11/17 06:16:27;;;;;;;0.30;0.30;;;8.30;99.90;;;;;;5113851;28;20475;-78
2022/11/17 06:19:03;;;;;;;0.80;0.40;;;8.40;99.90;;;;;;5113629;28;20479;-78
2022/11/17 06:21:30;;;;;;;0.47;0.40;;;8.40;99.90;;;;;;5113492;28;20969;-78
2022/11/17 06:23:59;;;;;;;0.30;0.30;;;8.40;99.90;;;;;;5113723;28;20465;-78
2022/11/17 06:26:27;;;;;;;0.30;0.30;;;8.40;99.90;;;;;;5113760;28;20454;-78
2022/11/17 06:28:55;;;;;;;0.40;0.40;;;8.40;99.90;;;;;;5114019;28;20440;-78
2022/11/17 06:31:23;;;;;;;0.30;0.30;;;8.40;99.90;;;;;;5113737;28;20444;-78
2022/11/17 06:33:49;;;;;;;0.30;0.30;;;8.40;99.90;;;;;;5113856;28;20856;-78
2022/11/17 06:36:16;;;;;;;0.40;0.30;;;8.40;99.90;;;;;;5113909;28;20454;-78
2022/11/17 06:38:43;;;;;;;0.30;0.30;;;8.40;99.90;;;;;;5113634;28;20455;-78
2022/11/17 06:41:10;;;;;;;0.30;0.30;;;8.30;99.90;;;;;;5113510;28;20479;-78
2022/11/17 06:43:38;;;;;;;1.03;0.40;;;8.30;99.90;;;;;;5113505;28;20478;-78
2022/11/17 06:46:05;;;;;;;0.50;0.40;;;8.30;99.90;;;;;;5113567;28;20453;-78
2022/11/17 06:48:34;;;;;;;0.30;0.30;;;8.30;99.90;;;;;;5113542;28;20443;-78
2022/11/17 06:51:03;;;;;;;0.40;0.30;;;8.30;99.90;;;;;;5113529;28;20447;-78
2022/11/17 06:53:30;;;;;;;0.50;0.40;;;8.30;99.90;;;;;;5113120;28;20528;-78
2022/11/17 06:56:01;;;;;;;0.33;0.33;;;8.40;99.90;;;;;;5113201;28;20904;-78
2022/11/17 06:58:28;;;;;;;0.40;0.30;;;8.40;99.90;;;;;;5114050;28;20432;-78
2022/11/17 07:01:01;;;;;;;0.50;0.40;;;8.30;99.90;;;;;;5116086;28;20480;-78
2022/11/17 07:03:28;;;;;;;0.30;0.20;;;8.40;99.90;;;;;;5117274;28;20463;-78
2022/11/17 07:05:59;;;;;;;0.30;0.20;;;8.50;99.90;;;;;;5117270;28;20447;-78
2022/11/17 07:08:26;;;;;;;0.83;0.50;;;8.50;99.90;;;;;;5117265;28;20432;-78
2022/11/17 07:10:54;;;;;;;0.40;0.30;;;8.50;99.90;;;;;;5116909;28;20446;-78
2022/11/17 07:13:21;;;;;;;0.40;0.30;;;8.50;99.90;;;;;;5117070;28;20467;-79
2022/11/17 07:15:49;;;;;;;0.30;0.30;;;8.50;99.90;;;;;;5116874;28;20505;-78
2022/11/17 07:18:18;;;;;;;0.40;0.30;;;8.50;99.90;;;;;;5116511;28;20875;-78
2022/11/17 07:20:44;;;;;;;0.30;0.20;;;8.60;99.90;;;;;;5116793;28;20451;-79
2022/11/17 07:23:11;;;;;;;0.60;0.30;;;8.70;99.90;;;;;;5116577;28;20474;-79
2022/11/17 07:25:38;;;;;;;0.30;0.20;;;8.70;99.90;;;;;;5116947;28;20466;-79
2022/11/17 07:28:05;;;;;;;0.30;0.30;;;8.80;99.90;;;;;;5116889;28;20439;-79
2022/11/17 07:30:32;;;;;;;0.47;0.30;;;8.80;99.90;;;;;;5117039;28;20449;-79
2022/11/17 07:33:00;;;;;;;0.30;0.30;;;8.80;99.90;;;;;;5116714;28;20467;-78
2022/11/17 07:35:28;;;;;;;0.30;0.30;;;8.90;99.90;;;;;;5116373;28;20896;-79
2022/11/17 07:37:58;;;;;;;0.30;0.30;;;9.00;99.90;;;;;;5116678;28;20449;-78
2022/11/17 07:40:25;;;;;;;0.30;0.20;;;9.10;99.90;;;;;;5116874;28;20468;-78
2022/11/17 07:42:52;;;;;;;0.30;0.20;;;9.20;99.90;;;;;;5116471;28;20522;-79
2022/11/17 07:45:20;;;;;;;0.30;0.30;;;9.20;99.90;;;;;;5116055;27;20969;-79
2022/11/17 07:47:54;;;;;;;0.30;0.20;;;9.20;99.90;;;;;;5116332;28;20613;-79
2022/11/17 07:50:20;;;;;;;0.30;0.30;;;9.30;99.90;;;;;;5116108;28;20968;-79
2022/11/17 07:52:49;;;;;;;0.60;0.30;;;9.30;99.90;;;;;;5116306;28;20466;-79
2022/11/17 07:55:16;;;;;;;0.30;0.20;;;9.40;99.90;;;;;;5116361;28;20454;-79
2022/11/17 07:57:43;;;;;;;0.40;0.30;;;9.40;99.90;;;;;;5116219;28;20775;-79
2022/11/17 08:00:11;;;;;;;0.40;0.30;;;9.50;99.90;;;;;;5116190;28;20443;-79
2022/11/17 08:02:38;;;;;;;0.40;0.30;;;9.60;99.90;;;;;;5116022;28;20484;-79
2022/11/17 08:05:06;;;;;;;0.30;0.20;;;9.70;99.90;;;;;;5115805;28;20926;-79
2022/11/17 08:07:33;;;;;;;0.40;0.30;;;9.70;99.90;;;;;;5115899;28;20454;-79
2022/11/17 08:10:01;;;;;;;0.40;0.40;;;9.80;99.90;;;;;;5116006;28;20479;-79
2022/11/17 08:12:28;;;;;;;0.30;0.30;;;9.90;99.90;;;;;;5115701;28;20452;-79
2022/11/17 08:14:55;;;;;;;0.30;0.20;;;10.10;99.90;;;;;;5116872;27;20918;-79
2022/11/17 08:17:22;;;;;;;0.30;0.20;;;10.30;99.90;;;;;;5115748;28;20476;-79
2022/11/17 08:19:49;;;;;;;1.03;0.30;;;10.40;99.90;;;;;;5116110;28;20444;-79
2022/11/17 08:22:16;;;;;;;0.30;0.27;;;10.40;99.90;;;;;;5115748;28;20572;-79
2022/11/17 08:24:42;;;;;;;0.33;0.33;;;10.50;99.90;;;;;;5115752;28;20587;-79
2022/11/17 08:27:11;;;;;;;0.30;0.20;;;10.50;99.90;;;;;;5115596;28;20455;-79
2022/11/17 08:29:38;;;;;;;0.30;0.20;;;10.50;99.90;;;;;;5115592;28;20467;-79
2022/11/17 08:32:05;;;;;;;0.30;0.30;;;10.60;99.90;;;;;;5115317;28;20451;-79
2022/11/17 08:34:32;;;;;;;0.30;0.20;;;10.50;99.90;;;;;;5115461;28;20467;-79
2022/11/17 08:36:59;;;;;;;0.30;0.20;;;10.40;99.90;;;;;;5115556;28;20446;-80
2022/11/17 08:39:25;;;;;;;0.30;0.30;;;10.40;99.90;;;;;;5116221;28;20466;-79
2022/11/17 08:41:52;;;;;;;0.30;0.20;;;10.50;99.90;;;;;;5115390;28;20479;-79
2022/11/17 08:44:20;;;;;;;0.30;0.20;;;10.60;99.90;;;;;;5115344;28;20463;-78
2022/11/17 08:46:47;;;;;;;0.30;0.20;;;10.90;99.90;;;;;;5115333;28;20810;-79
2022/11/17 08:49:14;;;;;;;0.30;0.20;;;11.00;99.90;;;;;;5114651;28;20923;-79
2022/11/17 08:51:41;;;;;;;0.30;0.20;;;11.00;99.90;;;;;;5115046;28;20439;-79
2022/11/17 08:54:11;;;;;;;0.50;0.50;;;11.00;99.90;;;;;;5113713;28;20474;-79
2022/11/17 08:56:38;;;;;;;0.30;0.20;;;11.00;99.90;;;;;;5115183;28;20818;-80
2022/11/17 08:59:05;;;;;;;0.30;0.30;;;11.20;99.90;;;;;;5115086;28;20444;-79
2022/11/17 09:01:33;;;;;;;0.30;0.30;;;11.20;99.90;;;;;;5114990;28;20511;-80
2022/11/17 09:04:00;;;;;;;0.30;0.20;;;11.30;99.90;;;;;;5114970;28;20475;-80
2022/11/17 09:06:27;;;;;;;0.30;0.23;;;11.40;99.90;;;;;;5115771;28;20456;-80
2022/11/17 09:08:54;;;;;;;0.30;0.20;;;11.50;99.90;;;;;;5115125;28;20452;-79
2022/11/17 09:11:21;;;;;;;0.30;0.23;;;11.60;99.90;;;;;;5115413;28;20439;-79
2022/11/17 09:13:48;;;;;;;0.30;0.20;;;11.60;99.90;;;;;;5114405;28;20472;-80
2022/11/17 09:16:15;;;;;;;0.30;0.20;;;11.60;99.90;;;;;;5114517;28;20939;-79
2022/11/17 09:18:44;;;;;;;2.87;0.30;;;11.50;99.90;;;;;;5114246;28;20503;-80
2022/11/17 09:21:12;;;;;;;0.30;0.20;;;11.50;99.90;;;;;;5114642;28;20447;-80
2022/11/17 09:23:39;;;;;;;0.30;0.20;;;11.40;99.90;;;;;;5113600;28;20990;-80
2022/11/17 09:26:08;;;;;;;0.30;0.20;;;11.40;99.90;;;;;;5114784;28;20452;-80
2022/11/17 09:28:35;;;;;;;0.30;0.20;;;11.40;99.90;;;;;;5114249;28;20907;-80
2022/11/17 09:31:06;;;;;;;0.30;0.30;;;11.40;99.90;;;;;;5114539;28;20800;-79
2022/11/17 09:33:33;;;;;;;2.73;0.33;;;11.40;99.90;;;;;;5114383;28;20534;-80
2022/11/17 09:36:01;;;;;;;0.40;0.30;;;11.60;99.90;;;;;;5114418;28;20446;-80
2022/11/17 09:38:28;;;;;;;0.80;0.33;;;11.60;99.90;;;;;;5114062;28;20987;-80
2022/11/17 09:40:57;;;;;;;0.30;0.20;;;11.60;99.90;;;;;;5114004;28;20965;-80
2022/11/17 09:43:28;;;;;;;0.30;0.30;;;11.60;99.90;;;;;;5114121;28;20487;-79
2022/11/17 09:46:03;;;;;;;0.30;0.20;;;11.80;99.90;;;;;;5115211;28;20436;-80
2022/11/17 09:48:39;;;;;;;0.40;0.40;;;11.90;99.90;;;;;;5113926;28;20515;-80
2022/11/17 09:51:12;;;;;;;0.30;0.20;;;12.00;99.90;;;;;;5113903;28;20518;-80
2022/11/17 09:53:45;;;;;;;0.30;0.20;;;12.00;99.90;;;;;;5114141;28;20459;-80
2022/11/17 09:56:14;;;;;;;0.30;0.20;;;12.00;99.90;;;;;;5114129;28;20447;-80
2022/11/17 09:58:45;;;;;;;0.40;0.30;;;12.10;99.90;;;;;;5114060;28;20447;-80
2022/11/17 10:01:13;;;;;;;0.30;0.30;;;12.20;99.90;;;;;;5113757;28;20919;-80
2022/11/17 10:03:43;;;;;;;0.30;0.20;;;12.10;99.90;;;;;;5114056;28;20490;-80
2022/11/17 10:06:15;;;;;;;0.30;0.20;;;12.30;99.90;;;;;;5114707;28;20796;-80
2022/11/17 10:08:49;;;;;;;0.40;0.30;;;12.30;99.90;;;;;;5114022;28;20435;-80
2022/11/17 10:11:33;;;;;;;0.40;0.37;;;12.30;99.90;;;;;;5114327;28;20899;-80
2022/11/17 10:14:03;;;;;;;0.30;0.30;;;12.40;99.90;;;;;;5115928;28;20551;-80
2022/11/17 10:16:30;;;;;;;0.30;0.20;;;12.50;99.90;;;;;;5115553;28;20923;-80
2022/11/17 10:18:57;;;;;;;0.53;0.53;;;12.50;99.90;;;;;;5113814;28;20996;-80
2022/11/17 10:21:29;;;;;;;0.80;0.30;;;12.70;99.90;;;;;;5113471;28;20444;-80
2022/11/17 10:23:57;;;;;;;0.30;0.20;;;12.80;99.90;;;;;;5113772;28;20513;-80
2022/11/17 10:26:24;;;;;;;0.30;0.30;;;12.70;99.90;;;;;;5113990;28;20440;-79
2022/11/17 10:29:06;;;;;;;0.40;0.30;;;12.60;99.90;;;;;;5113752;28;20435;-80
2022/11/17 10:31:41;;;;;;;0.30;0.20;;;12.80;99.90;;;;;;5113829;28;20466;-80
2022/11/17 10:34:10;;;;;;;0.30;0.30;;;12.80;99.90;;;;;;5115219;28;20531;-80
2022/11/17 10:36:46;;;;;;;0.30;0.30;;;12.80;99.90;;;;;;5117855;28;20492;-80
2022/11/17 10:39:37;;;;;;;0.30;0.30;;;12.90;99.90;;;;;;5117822;28;20427;-80
2022/11/17 10:42:22;;;;;;;1.43;0.30;;;12.70;99.90;;;;;;5117715;28;20472;-79
2022/11/17 10:44:51;;;;;;;0.30;0.20;;;12.70;99.90;;;;;;5117346;28;20463;-79
2022/11/17 10:47:28;;;;;;;0.30;0.30;;;12.70;99.90;;;;;;5117983;28;20423;-79
2022/11/17 10:50:20;;;;;;;0.77;0.30;;;12.60;99.90;;;;;;5117751;28;20442;-79
2022/11/17 10:52:49;;;;;;;0.30;0.23;;;12.80;99.90;;;;;;5117231;28;20934;-79
2022/11/17 10:55:23;;;;;;;0.30;0.20;;;13.00;99.90;;;;;;5117550;28;20444;-80
2022/11/17 10:57:52;;;;;;;0.40;0.40;;;13.10;99.90;;;;;;5117527;28;20428;-80
2022/11/17 11:00:25;;;;;;;0.30;0.20;;;13.00;99.90;;;;;;5117330;28;20452;-80
2022/11/17 11:03:07;;;;;;;0.40;0.30;;;12.90;99.90;;;;;;5116918;28;20994;-79
2022/11/17 11:05:34;;;;;;;0.30;0.23;;;12.80;99.90;;;;;;5117073;28;20922;-79
2022/11/17 11:08:18;;;;;;;0.30;0.20;;;12.70;99.90;;;;;;5117323;28;20862;-80
2022/11/17 11:10:49;;;;;;;3.23;0.33;;;12.70;99.90;;;;;;5117335;28;20510;-80
2022/11/17 11:13:24;;;;;;;0.30;0.30;;;12.70;99.90;;;;;;5117119;28;20459;-80
2022/11/17 11:15:52;;;;;;;0.30;0.20;;;12.80;99.90;;;;;;5117177;28;20442;-80
2022/11/17 11:18:20;;;;;;;0.30;0.20;;;12.90;99.90;;;;;;5116861;28;20529;-80
2022/11/17 11:20:55;;;;;;;0.33;0.30;;;12.90;99.90;;;;;;5116780;28;20454;-82
2022/11/17 11:23:35;;;;;;;0.30;0.20;;;13.10;99.90;;;;;;5116952;28;20871;-80
2022/11/17 11:26:12;;;;;;;0.30;0.20;;;13.40;99.90;;;;;;5116998;28;20488;-80
2022/11/17 11:28:56;;;;;;;0.30;0.30;;;13.60;99.90;;;;;;5116659;28;20427;-80
2022/11/17 11:31:30;;;;;;;0.30;0.20;;;13.60;99.90;;;;;;5117581;28;20560;-80
2022/11/17 11:34:09;;;;;;;0.30;0.30;;;13.60;99.90;;;;;;5116738;28;20465;-80
2022/11/17 11:36:40;;;;;;;2.73;0.40;;;13.40;99.90;;;;;;5116772;28;20431;-80
2022/11/17 11:39:20;;;;;;;3.33;0.40;;;13.40;99.90;;;;;;5116365;28;20912;-80
2022/11/17 11:42:03;;;;;;;0.40;0.30;;;13.30;99.90;;;;;;5116799;28;20431;-80
2022/11/17 11:44:44;;;;;;;0.30;0.20;;;13.30;99.90;;;;;;5116743;28;20471;-80
2022/11/17 11:47:27;;;;;;;0.30;0.30;;;13.10;99.90;;;;;;5115619;28;21006;-80
2022/11/17 11:49:58;;;;;;;0.30;0.30;;;12.90;99.90;;;;;;5116513;28;20424;-80
2022/11/17 11:52:31;;;;;;;0.30;0.20;;;12.90;99.90;;;;;;5116930;28;20440;-80
2022/11/17 11:55:01;;;;;;;0.40;0.40;;;12.70;99.90;;;;;;5116169;28;20929;-80
2022/11/17 11:57:35;;;;;;;0.30;0.30;;;12.70;99.90;;;;;;5116424;28;20461;-80
2022/11/17 12:00:05;;;;;;;0.40;0.30;;;12.60;99.90;;;;;;5116384;28;20432;-80
2022/11/17 12:02:41;;;;;;;0.30;0.20;;;12.50;99.90;;;;;;5116112;28;20485;-80
2022/11/17 12:05:18;;;;;;;0.30;0.30;;;12.40;99.90;;;;;;5116351;28;20428;-80
2022/11/17 12:07:52;;;;;;;0.40;0.30;;;12.40;99.90;;;;;;5116137;28;20430;-80
2022/11/17 12:10:27;;;;;;;0.30;0.30;;;12.20;99.90;;;;;;5116149;28;20424;-80
2022/11/17 12:12:54;;;;;;;3.40;0.30;;;12.20;99.90;;;;;;5116141;28;20465;-80
2022/11/17 12:15:35;;;;;;;0.40;0.40;;;12.30;99.90;;;;;;5116005;28;20454;-80
2022/11/17 12:18:05;;;;;;;0.30;0.30;;;12.40;99.90;;;;;;5115883;28;20502;-80
2022/11/17 12:20:55;;;;;;;0.30;0.30;;;12.60;99.90;;;;;;5115862;28;20946;-80
2022/11/17 12:23:54;;;;;;;0.37;0.30;;;12.70;99.90;;;;;;5115861;28;20942;-80
2022/11/17 12:26:27;;;;;;;0.40;0.30;;;12.70;99.90;;;;;;5089767;28;20444;-80
2022/11/17 12:29:30;;;;;;;0.30;0.30;;;12.70;99.90;;;;;;5115807;28;20420;-80
2022/11/17 12:31:59;;;;;;;0.30;0.20;;;12.70;99.90;;;;;;5115802;28;20849;-80
2022/11/17 12:34:34;;;;;;;0.30;0.20;;;12.60;99.90;;;;;;5115626;28;20467;-80
2022/11/17 12:37:25;;;;;;;0.30;0.30;;;12.50;99.90;;;;;;5115752;28;20428;-81
2022/11/17 12:40:02;;;;;;;0.30;0.20;;;12.50;99.90;;;;;;5112117;28;20551;-80
2022/11/17 12:42:32;;;;;;;0.30;0.20;;;12.50;99.90;;;;;;5115472;28;20464;-80
2022/11/17 12:45:01;;;;;;;0.30;0.27;;;12.40;99.90;;;;;;5115125;28;20447;-80
2022/11/17 12:47:30;;;;;;;0.30;0.30;;;12.40;99.90;;;;;;5115403;28;20439;-79
2022/11/17 12:50:50;;;;;;;0.40;0.30;;;12.30;99.90;;;;;;5115416;28;20956;-81
2022/11/17 12:53:47;;;;;;;2.30;0.30;;;12.20;99.90;;;;;;5070436;28;20475;-80
2022/11/17 12:56:31;;;;;;;0.70;0.30;;;12.20;99.90;;;;;;5116995;28;20935;-80
2022/11/17 12:59:42;;;;;;;0.30;0.20;;;12.10;99.90;;;;;;5114849;28;20926;-80
2022/11/17 13:02:20;;;;;;;0.30;0.20;;;12.00;99.90;;;;;;5085539;28;20459;-80
2022/11/17 13:04:51;;;;;;;0.30;0.30;;;12.00;99.90;;;;;;5114709;28;20977;-80
2022/11/17 13:07:20;;;;;;;0.30;0.20;;;11.90;99.90;;;;;;5115038;28;20424;-80
2022/11/17 13:09:52;;;;;;;0.30;0.20;;;11.90;99.90;;;;;;5114941;28;20489;-80
2022/11/17 13:12:22;;;;;;;0.40;0.40;;;11.90;99.90;;;;;;5114633;28;20424;-80
2022/11/17 13:14:56;;;;;;;2.20;0.40;;;11.90;99.90;;;;;;5114448;28;20842;-80
2022/11/17 13:17:27;;;;;;;0.60;0.30;;;11.90;99.90;;;;;;5114723;28;20482;-80
2022/11/17 13:20:04;;;;;;;0.30;0.30;;;11.90;99.90;;;;;;5152513;27;20919;-80
2022/11/17 13:22:31;;;;;;;0.30;0.20;;;11.80;99.90;;;;;;5152444;27;20437;-80
2022/11/17 13:24:58;;;;;;;3.90;0.30;;;11.70;99.90;;;;;;5152126;27;20445;-81
2022/11/17 13:27:27;;;;;;;2.00;0.53;;;11.70;99.90;;;;;;5152390;27;20498;-80
2022/11/17 13:30:13;;;;;;;1.13;0.40;;;11.60;99.90;;;;;;5152299;27;20477;-80
2022/11/17 13:32:41;;;;;;;1.43;0.30;;;11.60;99.90;;;;;;5152347;27;20441;-80
2022/11/17 13:35:21;;;;;;;0.40;0.40;;;11.60;99.90;;;;;;5151936;27;20968;-80